sensor_id;sensor_type;location;lat;lon;timestamp;pressure;altitude;pressure_sealevel;temperature;humidity
54910;BME280;40808;51.240;9.964;2022-08-19T00:01:07;97516.66;;;19.58;81.23
54910;BME280;40808;51.240;9.964;2022-08-19T00:03:34;97514.22;;;19.55;81.64
54910;BME280;40808;51.240;9.964;2022-08-19T00:06:00;97509.91;;;19.54;81.96
54910;BME280;40808;51.240;9.964;2022-08-19T00:08:25;97498.72;;;19.50;81.94
54910;BME280;40808;51.240;9.964;2022-08-19T00:10:50;97497.94;;;19.48;82.32
54910;BME280;40808;51.240;9.964;2022-08-19T00:13:16;97488.56;;;19.44;82.39
54910;BME280;40808;51.240;9.964;2022-08-19T00:15:41;97494.09;;;19.41;83.26
54910;BME280;40808;51.240;9.964;2022-08-19T00:18:10;97494.94;;;19.42;83.04
54910;BME280;40808;51.240;9.964;2022-08-19T00:20:35;97490.72;;;19.39;82.78
54910;BME280;40808;51.240;9.964;2022-08-19T00:23:01;97489.00;;;19.38;83.18
54910;BME280;40808;51.240;9.964;2022-08-19T00:25:30;97493.56;;;19.36;83.03
54910;BME280;40808;51.240;9.964;2022-08-19T00:27:56;97496.00;;;19.39;83.42
54910;BME280;40808;51.240;9.964;2022-08-19T00:30:21;97494.41;;;19.37;83.57
54910;BME280;40808;51.240;9.964;2022-08-19T00:32:47;97500.66;;;19.36;83.85
54910;BME280;40808;51.240;9.964;2022-08-19T00:35:12;97507.63;;;19.37;84.88
54910;BME280;40808;51.240;9.964;2022-08-19T00:37:38;97498.84;;;19.36;84.45
54910;BME280;40808;51.240;9.964;2022-08-19T00:40:09;97501.63;;;19.35;84.93
54910;BME280;40808;51.240;9.964;2022-08-19T00:42:35;97494.75;;;19.32;84.66
54910;BME280;40808;51.240;9.964;2022-08-19T00:45:00;97492.00;;;19.33;84.91
54910;BME280;40808;51.240;9.964;2022-08-19T00:47:26;97488.63;;;19.31;85.12
54910;BME280;40808;51.240;9.964;2022-08-19T00:49:54;97486.94;;;19.30;85.36
54910;BME280;40808;51.240;9.964;2022-08-19T00:52:43;97485.59;;;19.25;86.77
54910;BME280;40808;51.240;9.964;2022-08-19T00:55:13;97485.81;;;19.22;86.59
54910;BME280;40808;51.240;9.964;2022-08-19T00:57:41;97478.13;;;19.19;86.84
54910;BME280;40808;51.240;9.964;2022-08-19T01:00:13;97478.97;;;19.19;87.20
54910;BME280;40808;51.240;9.964;2022-08-19T01:02:40;97481.81;;;19.16;87.83
54910;BME280;40808;51.240;9.964;2022-08-19T01:05:08;97474.13;;;19.13;87.80
54910;BME280;40808;51.240;9.964;2022-08-19T01:07:35;97476.03;;;19.11;87.57
54910;BME280;40808;51.240;9.964;2022-08-19T01:10:03;97473.63;;;19.08;87.76
54910;BME280;40808;51.240;9.964;2022-08-19T01:12:29;97474.34;;;19.10;87.53
54910;BME280;40808;51.240;9.964;2022-08-19T01:14:55;97471.69;;;19.10;87.49
54910;BME280;40808;51.240;9.964;2022-08-19T01:17:21;97475.41;;;19.08;87.45
54910;BME280;40808;51.240;9.964;2022-08-19T01:19:47;97466.66;;;19.07;87.10
54910;BME280;40808;51.240;9.964;2022-08-19T01:22:30;97476.34;;;19.07;87.45
54910;BME280;40808;51.240;9.964;2022-08-19T01:24:57;97472.66;;;19.09;86.90
54910;BME280;40808;51.240;9.964;2022-08-19T01:27:22;97477.94;;;19.09;86.82
54910;BME280;40808;51.240;9.964;2022-08-19T01:29:48;97487.66;;;19.09;86.61
54910;BME280;40808;51.240;9.964;2022-08-19T01:32:16;97485.75;;;19.11;86.63
54910;BME280;40808;51.240;9.964;2022-08-19T01:34:42;97488.28;;;19.12;86.68
54910;BME280;40808;51.240;9.964;2022-08-19T01:37:13;97480.47;;;19.11;86.71
54910;BME280;40808;51.240;9.964;2022-08-19T01:39:40;97480.59;;;19.09;86.45
54910;BME280;40808;51.240;9.964;2022-08-19T01:42:08;97480.69;;;19.08;87.16
54910;BME280;40808;51.240;9.964;2022-08-19T01:44:37;97475.41;;;19.08;86.59
54910;BME280;40808;51.240;9.964;2022-08-19T01:47:03;97478.97;;;19.07;86.50
54910;BME280;40808;51.240;9.964;2022-08-19T01:49:29;97475.72;;;19.03;86.49
54910;BME280;40808;51.240;9.964;2022-08-19T01:51:54;97475.84;;;19.01;86.18
54910;BME280;40808;51.240;9.964;2022-08-19T01:54:22;97475.72;;;19.03;86.16
54910;BME280;40808;51.240;9.964;2022-08-19T01:56:49;97478.38;;;19.03;85.77
54910;BME280;40808;51.240;9.964;2022-08-19T01:59:18;97483.66;;;19.03;86.21
54910;BME280;40808;51.240;9.964;2022-08-19T02:01:44;97480.06;;;19.04;86.18
54910;BME280;40808;51.240;9.964;2022-08-19T02:04:09;97481.75;;;19.05;85.49
54910;BME280;40808;51.240;9.964;2022-08-19T02:06:35;97473.09;;;19.03;85.38
54910;BME280;40808;51.240;9.964;2022-08-19T02:09:03;97472.84;;;19.06;85.26
54910;BME280;40808;51.240;9.964;2022-08-19T02:11:32;97458.91;;;19.04;85.04
54910;BME280;40808;51.240;9.964;2022-08-19T02:14:00;97456.41;;;19.02;84.91
54910;BME280;40808;51.240;9.964;2022-08-19T02:16:27;97461.78;;;19.01;84.69
54910;BME280;40808;51.240;9.964;2022-08-19T02:18:53;97469.72;;;19.01;84.49
54910;BME280;40808;51.240;9.964;2022-08-19T02:21:21;97468.88;;;19.00;84.65
54910;BME280;40808;51.240;9.964;2022-08-19T02:23:48;97469.94;;;18.98;84.60
54910;BME280;40808;51.240;9.964;2022-08-19T02:26:13;97473.44;;;18.98;84.29
54910;BME280;40808;51.240;9.964;2022-08-19T02:28:40;97462.09;;;18.96;84.21
54910;BME280;40808;51.240;9.964;2022-08-19T02:31:14;97467.63;;;18.93;84.29
54910;BME280;40808;51.240;9.964;2022-08-19T02:33:42;97470.16;;;18.95;83.92
54910;BME280;40808;51.240;9.964;2022-08-19T02:36:09;97466.06;;;18.91;83.82
54910;BME280;40808;51.240;9.964;2022-08-19T02:38:36;97454.75;;;18.89;83.83
54910;BME280;40808;51.240;9.964;2022-08-19T02:41:13;97460.88;;;18.89;83.90
54910;BME280;40808;51.240;9.964;2022-08-19T02:43:39;97460.88;;;18.89;83.55
54910;BME280;40808;51.240;9.964;2022-08-19T02:46:32;97464.25;;;18.91;83.28
54910;BME280;40808;51.240;9.964;2022-08-19T02:49:01;97455.59;;;18.89;83.39
54910;BME280;40808;51.240;9.964;2022-08-19T02:51:33;97448.84;;;18.85;83.23
54910;BME280;40808;51.240;9.964;2022-08-19T02:53:59;97454.97;;;18.86;83.92
54910;BME280;40808;51.240;9.964;2022-08-19T02:56:26;97458.66;;;18.83;83.32
54910;BME280;40808;51.240;9.964;2022-08-19T02:58:53;97468.41;;;18.83;83.33
54910;BME280;40808;51.240;9.964;2022-08-19T03:01:21;97468.41;;;18.83;83.17
54910;BME280;40808;51.240;9.964;2022-08-19T03:03:47;97466.72;;;18.82;83.42
54910;BME280;40808;51.240;9.964;2022-08-19T03:06:14;97472.94;;;18.81;83.05
54910;BME280;40808;51.240;9.964;2022-08-19T03:08:42;97475.06;;;18.75;82.49
54910;BME280;40808;51.240;9.964;2022-08-19T03:11:16;97485.00;;;18.72;82.76
54910;BME280;40808;51.240;9.964;2022-08-19T03:13:42;97480.34;;;18.75;82.45
54910;BME280;40808;51.240;9.964;2022-08-19T03:16:09;97482.25;;;18.73;82.27
54910;BME280;40808;51.240;9.964;2022-08-19T03:18:34;97483.94;;;18.74;81.92
54910;BME280;40808;51.240;9.964;2022-08-19T03:20:59;97489.44;;;18.71;82.64
54910;BME280;40808;51.240;9.964;2022-08-19T03:23:25;97487.75;;;18.70;82.51
54910;BME280;40808;51.240;9.964;2022-08-19T03:25:52;97495.56;;;18.72;82.84
54910;BME280;40808;51.240;9.964;2022-08-19T03:28:18;97488.81;;;18.68;83.17
54910;BME280;40808;51.240;9.964;2022-08-19T03:30:55;97493.03;;;18.70;82.85
54910;BME280;40808;51.240;9.964;2022-08-19T03:33:22;97506.97;;;18.72;82.69
54910;BME280;40808;51.240;9.964;2022-08-19T03:35:59;97506.97;;;18.72;82.91
54910;BME280;40808;51.240;9.964;2022-08-19T03:38:25;97502.53;;;18.73;82.99
54910;BME280;40808;51.240;9.964;2022-08-19T03:40:50;97508.53;;;18.75;82.63
54910;BME280;40808;51.240;9.964;2022-08-19T03:43:15;97514.59;;;18.77;82.84
54910;BME280;40808;51.240;9.964;2022-08-19T03:45:42;97512.56;;;18.81;82.77
54910;BME280;40808;51.240;9.964;2022-08-19T03:48:08;97504.63;;;18.81;82.89
54910;BME280;40808;51.240;9.964;2022-08-19T03:50:38;97508.00;;;18.83;82.94
54910;BME280;40808;51.240;9.964;2022-08-19T03:53:04;97506.09;;;18.85;82.81
54910;BME280;40808;51.240;9.964;2022-08-19T03:55:29;97507.06;;;18.84;82.93
54910;BME280;40808;51.240;9.964;2022-08-19T03:57:55;97490.47;;;18.82;82.93
54910;BME280;40808;51.240;9.964;2022-08-19T04:00:21;97500.31;;;18.80;83.07
54910;BME280;40808;51.240;9.964;2022-08-19T04:02:46;97496.84;;;18.79;82.98
54910;BME280;40808;51.240;9.964;2022-08-19T04:05:12;97499.59;;;18.78;83.42
54910;BME280;40808;51.240;9.964;2022-08-19T04:07:39;97497.06;;;18.76;83.45
54910;BME280;40808;51.240;9.964;2022-08-19T04:10:05;97505.06;;;18.74;83.74
54910;BME280;40808;51.240;9.964;2022-08-19T04:12:31;97504.03;;;18.77;83.93
54910;BME280;40808;51.240;9.964;2022-08-19T04:14:57;97501.38;;;18.77;84.04
54910;BME280;40808;51.240;9.964;2022-08-19T04:17:27;97501.47;;;18.75;84.30
54910;BME280;40808;51.240;9.964;2022-08-19T04:19:52;97512.03;;;18.75;84.19
54910;BME280;40808;51.240;9.964;2022-08-19T04:22:17;97516.28;;;18.78;84.27
54910;BME280;40808;51.240;9.964;2022-08-19T04:24:43;97510.03;;;18.79;84.17
54910;BME280;40808;51.240;9.964;2022-08-19T04:27:08;97514.38;;;18.80;84.10
54910;BME280;40808;51.240;9.964;2022-08-19T04:29:34;97511.59;;;18.82;84.29
54910;BME280;40808;51.240;9.964;2022-08-19T04:32:00;97508.97;;;18.82;84.17
54910;BME280;40808;51.240;9.964;2022-08-19T04:34:28;97507.16;;;18.82;84.15
54910;BME280;40808;51.240;9.964;2022-08-19T04:36:55;97512.22;;;18.85;84.34
54910;BME280;40808;51.240;9.964;2022-08-19T04:39:25;97513.06;;;18.86;84.08
54910;BME280;40808;51.240;9.964;2022-08-19T04:42:11;97516.66;;;18.85;84.41
54910;BME280;40808;51.240;9.964;2022-08-19T04:44:56;97521.88;;;18.86;84.07
54910;BME280;40808;51.240;9.964;2022-08-19T04:47:22;97518.28;;;18.87;83.99
54910;BME280;40808;51.240;9.964;2022-08-19T04:49:47;97517.44;;;18.87;84.26
54910;BME280;40808;51.240;9.964;2022-08-19T04:52:13;97521.00;;;18.86;84.37
54910;BME280;40808;51.240;9.964;2022-08-19T04:54:39;97523.63;;;18.86;84.13
54910;BME280;40808;51.240;9.964;2022-08-19T04:57:08;97531.47;;;18.87;84.75
54910;BME280;40808;51.240;9.964;2022-08-19T04:59:36;97524.41;;;18.88;84.95
54910;BME280;40808;51.240;9.964;2022-08-19T05:02:02;97530.84;;;18.84;84.37
54910;BME280;40808;51.240;9.964;2022-08-19T05:04:27;97529.25;;;18.81;84.68
54910;BME280;40808;51.240;9.964;2022-08-19T05:06:56;97544.25;;;18.81;84.60
54910;BME280;40808;51.240;9.964;2022-08-19T05:09:22;97534.88;;;18.77;84.75
54910;BME280;40808;51.240;9.964;2022-08-19T05:11:47;97540.88;;;18.79;84.30
54910;BME280;40808;51.240;9.964;2022-08-19T05:14:13;97532.22;;;18.77;84.36
54910;BME280;40808;51.240;9.964;2022-08-19T05:16:39;97526.00;;;18.78;84.13
54910;BME280;40808;51.240;9.964;2022-08-19T05:19:05;97520.72;;;18.78;84.39
54910;BME280;40808;51.240;9.964;2022-08-19T05:21:49;97514.66;;;18.75;83.82
54910;BME280;40808;51.240;9.964;2022-08-19T05:24:33;97523.75;;;18.84;83.58
54910;BME280;40808;51.240;9.964;2022-08-19T05:26:59;97512.22;;;18.85;83.22
54910;BME280;40808;51.240;9.964;2022-08-19T05:29:27;97521.94;;;18.85;82.45
54910;BME280;40808;51.240;9.964;2022-08-19T05:31:53;97518.56;;;18.83;82.43
54910;BME280;40808;51.240;9.964;2022-08-19T05:34:20;97517.44;;;18.87;82.33
54910;BME280;40808;51.240;9.964;2022-08-19T05:36:48;97517.31;;;18.88;81.90
54910;BME280;40808;51.240;9.964;2022-08-19T05:39:17;97525.00;;;18.91;81.45
54910;BME280;40808;51.240;9.964;2022-08-19T05:41:44;97523.31;;;18.90;81.41
54910;BME280;40808;51.240;9.964;2022-08-19T05:44:10;97523.44;;;18.89;80.94
54910;BME280;40808;51.240;9.964;2022-08-19T05:46:37;97526.81;;;18.91;80.80
54910;BME280;40808;51.240;9.964;2022-08-19T05:49:07;97523.22;;;18.92;80.60
54910;BME280;40808;51.240;9.964;2022-08-19T05:51:35;97523.22;;;18.92;80.24
54910;BME280;40808;51.240;9.964;2022-08-19T05:54:05;97521.31;;;18.94;79.71
54910;BME280;40808;51.240;9.964;2022-08-19T05:56:32;97501.47;;;18.88;78.56
54910;BME280;40808;51.240;9.964;2022-08-19T05:59:02;97507.38;;;18.92;78.37
54910;BME280;40808;51.240;9.964;2022-08-19T06:01:27;97528.06;;;18.98;77.67
54910;BME280;40808;51.240;9.964;2022-08-19T06:03:53;97510.31;;;19.00;76.88
54910;BME280;40808;51.240;9.964;2022-08-19T06:06:19;97514.53;;;19.02;76.51
54910;BME280;40808;51.240;9.964;2022-08-19T06:08:45;97520.22;;;19.09;75.29
54910;BME280;40808;51.240;9.964;2022-08-19T06:11:22;97523.38;;;19.14;74.82
54910;BME280;40808;51.240;9.964;2022-08-19T06:13:49;97530.13;;;19.18;73.08
54910;BME280;40808;51.240;9.964;2022-08-19T06:16:17;97536.66;;;19.25;73.70
54910;BME280;40808;51.240;9.964;2022-08-19T06:18:51;97528.28;;;19.31;71.94
54910;BME280;40808;51.240;9.964;2022-08-19T06:21:20;97531.53;;;19.35;71.32
54910;BME280;40808;51.240;9.964;2022-08-19T06:23:46;97538.88;;;19.31;71.88
54910;BME280;40808;51.240;9.964;2022-08-19T06:26:13;97542.56;;;19.29;71.91
54910;BME280;40808;51.240;9.964;2022-08-19T06:28:39;97548.72;;;19.29;71.55
54910;BME280;40808;51.240;9.964;2022-08-19T06:31:11;97541.94;;;19.25;71.77
54910;BME280;40808;51.240;9.964;2022-08-19T06:33:39;97553.22;;;19.27;71.96
54910;BME280;40808;51.240;9.964;2022-08-19T06:36:04;97551.06;;;19.21;70.75
54910;BME280;40808;51.240;9.964;2022-08-19T06:38:31;97567.53;;;19.25;71.03
54910;BME280;40808;51.240;9.964;2022-08-19T06:41:03;97560.75;;;19.33;71.18
54910;BME280;40808;51.240;9.964;2022-08-19T06:43:29;97567.28;;;19.41;70.98
54910;BME280;40808;51.240;9.964;2022-08-19T06:45:55;97582.06;;;19.43;70.60
54910;BME280;40808;51.240;9.964;2022-08-19T06:48:20;97587.00;;;19.48;71.02
54910;BME280;40808;51.240;9.964;2022-08-19T06:50:45;97584.47;;;19.46;70.59
54910;BME280;40808;51.240;9.964;2022-08-19T06:53:12;97594.94;;;19.48;70.50
54910;BME280;40808;51.240;9.964;2022-08-19T06:55:37;97595.19;;;19.45;69.57
54910;BME280;40808;51.240;9.964;2022-08-19T06:58:04;97612.72;;;19.46;70.22
54910;BME280;40808;51.240;9.964;2022-08-19T07:00:30;97613.69;;;19.45;69.72
54910;BME280;40808;51.240;9.964;2022-08-19T07:02:55;97611.88;;;19.45;70.04
54910;BME280;40808;51.240;9.964;2022-08-19T07:05:21;97622.75;;;19.53;69.96
54910;BME280;40808;51.240;9.964;2022-08-19T07:07:47;97619.50;;;19.63;69.64
54910;BME280;40808;51.240;9.964;2022-08-19T07:10:13;97608.63;;;19.78;69.62
54910;BME280;40808;51.240;9.964;2022-08-19T07:12:38;97611.31;;;19.89;69.57
54910;BME280;40808;51.240;9.964;2022-08-19T07:15:06;97606.25;;;19.86;69.08
54910;BME280;40808;51.240;9.964;2022-08-19T07:17:33;97612.50;;;19.85;68.68
54910;BME280;40808;51.240;9.964;2022-08-19T07:20:03;97610.84;;;19.84;68.83
54910;BME280;40808;51.240;9.964;2022-08-19T07:22:28;97618.03;;;19.82;68.96
54910;BME280;40808;51.240;9.964;2022-08-19T07:24:54;97622.09;;;19.75;68.83
54910;BME280;40808;51.240;9.964;2022-08-19T07:27:19;97622.31;;;19.72;69.02
54910;BME280;40808;51.240;9.964;2022-08-19T07:29:44;97641.66;;;19.73;69.04
54910;BME280;40808;51.240;9.964;2022-08-19T07:32:11;97638.19;;;19.72;69.19
54910;BME280;40808;51.240;9.964;2022-08-19T07:34:36;97639.16;;;19.71;69.19
54910;BME280;40808;51.240;9.964;2022-08-19T07:37:04;97640.59;;;19.75;69.71
54910;BME280;40808;51.240;9.964;2022-08-19T07:39:32;97643.97;;;19.77;69.75
54910;BME280;40808;51.240;9.964;2022-08-19T07:41:59;97644.63;;;19.81;69.44
54910;BME280;40808;51.240;9.964;2022-08-19T07:44:26;97647.97;;;19.83;69.46
54910;BME280;40808;51.240;9.964;2022-08-19T07:46:55;97633.19;;;19.80;69.57
54910;BME280;40808;51.240;9.964;2022-08-19T07:49:22;97638.84;;;19.87;69.21
54910;BME280;40808;51.240;9.964;2022-08-19T07:51:50;97640.91;;;19.83;68.86
54910;BME280;40808;51.240;9.964;2022-08-19T07:54:17;97623.34;;;19.82;69.05
54910;BME280;40808;51.240;9.964;2022-08-19T07:56:43;97638.25;;;19.83;69.15
54910;BME280;40808;51.240;9.964;2022-08-19T07:59:08;97636.31;;;19.85;69.08
54910;BME280;40808;51.240;9.964;2022-08-19T08:01:34;97638.13;;;19.85;69.12
54910;BME280;40808;51.240;9.964;2022-08-19T08:04:00;97621.72;;;19.80;68.79
54910;BME280;40808;51.240;9.964;2022-08-19T08:06:44;97637.28;;;19.84;68.86
54910;BME280;40808;51.240;9.964;2022-08-19T08:09:41;97634.41;;;19.87;69.02
54910;BME280;40808;51.240;9.964;2022-08-19T08:12:22;97643.06;;;19.89;68.77
54910;BME280;40808;51.240;9.964;2022-08-19T08:14:52;97635.13;;;19.89;68.36
54910;BME280;40808;51.240;9.964;2022-08-19T08:17:21;97640.09;;;19.94;68.22
54910;BME280;40808;51.240;9.964;2022-08-19T08:19:47;97638.19;;;19.96;68.57
54910;BME280;40808;51.240;9.964;2022-08-19T08:22:19;97630.97;;;19.98;68.39
54910;BME280;40808;51.240;9.964;2022-08-19T08:25:05;97642.03;;;19.92;68.12
54910;BME280;40808;51.240;9.964;2022-08-19T08:27:31;97646.25;;;19.95;68.24
54910;BME280;40808;51.240;9.964;2022-08-19T08:30:00;97651.41;;;19.96;67.95
54910;BME280;40808;51.240;9.964;2022-08-19T08:32:25;97647.69;;;19.99;68.03
54910;BME280;40808;51.240;9.964;2022-08-19T08:34:52;97655.63;;;19.99;67.59
54910;BME280;40808;51.240;9.964;2022-08-19T08:37:17;97654.91;;;19.97;68.14
54910;BME280;40808;51.240;9.964;2022-08-19T08:39:42;97666.34;;;19.97;67.64
54910;BME280;40808;51.240;9.964;2022-08-19T08:42:24;97661.16;;;19.96;68.07
54910;BME280;40808;51.240;9.964;2022-08-19T08:45:14;97659.75;;;20.03;67.87
54910;BME280;40808;51.240;9.964;2022-08-19T08:47:48;97658.06;;;20.02;67.62
54910;BME280;40808;51.240;9.964;2022-08-19T08:50:38;97668.19;;;20.08;67.58
54910;BME280;40808;51.240;9.964;2022-08-19T08:53:06;97665.22;;;20.12;67.86
54910;BME280;40808;51.240;9.964;2022-08-19T08:55:33;97660.41;;;20.17;66.99
54910;BME280;40808;51.240;9.964;2022-08-19T08:58:04;97674.50;;;20.18;65.97
54910;BME280;40808;51.240;9.964;2022-08-19T09:00:37;97679.34;;;20.24;66.00
54910;BME280;40808;51.240;9.964;2022-08-19T09:03:06;97684.06;;;20.32;66.20
54910;BME280;40808;51.240;9.964;2022-08-19T09:08:27;97666.66;;;20.40;65.65
54910;BME280;40808;51.240;9.964;2022-08-19T09:10:57;97672.84;;;20.52;65.10
54910;BME280;40808;51.240;9.964;2022-08-19T09:13:33;97676.63;;;20.61;64.59
54910;BME280;40808;51.240;9.964;2022-08-19T09:16:10;97677.84;;;20.68;64.27
54910;BME280;40808;51.240;9.964;2022-08-19T09:21:29;97686.81;;;20.89;63.36
54910;BME280;40808;51.240;9.964;2022-08-19T09:23:54;97685.03;;;21.01;63.16
54910;BME280;40808;51.240;9.964;2022-08-19T09:26:22;97667.56;;;21.10;62.67
54910;BME280;40808;51.240;9.964;2022-08-19T09:28:49;97674.09;;;21.17;62.51
54910;BME280;40808;51.240;9.964;2022-08-19T09:31:17;97685.06;;;21.23;61.48
54910;BME280;40808;51.240;9.964;2022-08-19T09:33:43;97677.38;;;21.31;61.21
54910;BME280;40808;51.240;9.964;2022-08-19T09:36:11;97669.69;;;21.40;60.41
54910;BME280;40808;51.240;9.964;2022-08-19T09:38:38;97671.09;;;21.55;60.46
54910;BME280;40808;51.240;9.964;2022-08-19T09:41:07;97669.41;;;21.65;59.15
54910;BME280;40808;51.240;9.964;2022-08-19T09:43:33;97673.97;;;21.85;59.76
54910;BME280;40808;51.240;9.964;2022-08-19T09:46:03;97674.31;;;21.92;59.12
54910;BME280;40808;51.240;9.964;2022-08-19T09:48:33;97672.00;;;21.99;58.39
54910;BME280;40808;51.240;9.964;2022-08-19T09:51:09;97668.75;;;22.06;57.48
54910;BME280;40808;51.240;9.964;2022-08-19T09:53:36;97665.47;;;22.14;57.28
54910;BME280;40808;51.240;9.964;2022-08-19T09:56:04;97665.31;;;22.27;57.57
54910;BME280;40808;51.240;9.964;2022-08-19T09:58:30;97654.84;;;22.46;57.62
54910;BME280;40808;51.240;9.964;2022-08-19T10:00:56;97666.91;;;22.71;56.84
54910;BME280;40808;51.240;9.964;2022-08-19T10:03:24;97660.66;;;22.93;56.41
54910;BME280;40808;51.240;9.964;2022-08-19T10:05:51;97655.50;;;23.01;54.89
54910;BME280;40808;51.240;9.964;2022-08-19T10:08:25;97652.34;;;23.07;54.37
54910;BME280;40808;51.240;9.964;2022-08-19T10:10:52;97660.81;;;23.22;55.02
54910;BME280;40808;51.240;9.964;2022-08-19T10:13:20;97659.63;;;23.36;55.49
54910;BME280;40808;51.240;9.964;2022-08-19T10:15:51;97655.34;;;23.54;54.80
54910;BME280;40808;51.240;9.964;2022-08-19T10:18:18;97660.63;;;23.84;55.77
54910;BME280;40808;51.240;9.964;2022-08-19T10:20:48;97646.22;;;23.97;53.38
54910;BME280;40808;51.240;9.964;2022-08-19T10:23:14;97642.19;;;24.12;53.55
54910;BME280;40808;51.240;9.964;2022-08-19T10:25:41;97642.50;;;24.28;53.03
54910;BME280;40808;51.240;9.964;2022-08-19T10:28:07;97652.59;;;24.34;52.32
54910;BME280;40808;51.240;9.964;2022-08-19T10:30:33;97654.16;;;24.56;53.09
54910;BME280;40808;51.240;9.964;2022-08-19T10:32:59;97648.09;;;24.73;52.54
54910;BME280;40808;51.240;9.964;2022-08-19T10:35:25;97641.31;;;24.98;51.98
54910;BME280;40808;51.240;9.964;2022-08-19T10:37:52;97641.88;;;25.12;51.45
54910;BME280;40808;51.240;9.964;2022-08-19T10:40:18;97639.34;;;25.10;50.13
54910;BME280;40808;51.240;9.964;2022-08-19T10:42:43;97635.44;;;25.04;48.95
54910;BME280;40808;51.240;9.964;2022-08-19T10:45:10;97620.09;;;25.16;50.08
54910;BME280;40808;51.240;9.964;2022-08-19T10:47:35;97623.41;;;25.28;50.23
54910;BME280;40808;51.240;9.964;2022-08-19T10:50:00;97616.19;;;25.38;49.82
54910;BME280;40808;51.240;9.964;2022-08-19T10:52:47;97624.31;;;25.46;48.89
54910;BME280;40808;51.240;9.964;2022-08-19T10:55:13;97615.31;;;25.47;49.42
54910;BME280;40808;51.240;9.964;2022-08-19T10:57:57;97612.69;;;25.65;49.58
54910;BME280;40808;51.240;9.964;2022-08-19T11:00:24;97624.72;;;25.79;48.06
54910;BME280;40808;51.240;9.964;2022-08-19T11:02:50;97608.13;;;25.85;49.29
54910;BME280;40808;51.240;9.964;2022-08-19T11:05:15;97609.50;;;25.89;47.55
54910;BME280;40808;51.240;9.964;2022-08-19T11:07:42;97612.78;;;26.01;46.55
54910;BME280;40808;51.240;9.964;2022-08-19T11:10:12;97618.88;;;26.11;46.58
54910;BME280;40808;51.240;9.964;2022-08-19T11:12:40;97616.66;;;26.24;46.89
54910;BME280;40808;51.240;9.964;2022-08-19T11:15:08;97611.47;;;26.23;45.28
54910;BME280;40808;51.240;9.964;2022-08-19T11:17:39;97616.22;;;26.11;46.16
54910;BME280;40808;51.240;9.964;2022-08-19T11:20:11;97610.50;;;26.06;45.23
54910;BME280;40808;51.240;9.964;2022-08-19T11:22:39;97609.09;;;25.84;45.51
54910;BME280;40808;51.240;9.964;2022-08-19T11:25:06;97604.16;;;25.89;46.05
54910;BME280;40808;51.240;9.964;2022-08-19T11:27:32;97594.53;;;25.96;46.08
54910;BME280;40808;51.240;9.964;2022-08-19T11:29:59;97588.88;;;25.99;45.72
54910;BME280;40808;51.240;9.964;2022-08-19T11:32:24;97589.41;;;26.03;45.39
54910;BME280;40808;51.240;9.964;2022-08-19T11:34:49;97600.66;;;26.06;45.61
54910;BME280;40808;51.240;9.964;2022-08-19T11:37:15;97593.31;;;26.08;45.43
54910;BME280;40808;51.240;9.964;2022-08-19T11:39:40;97601.78;;;26.04;44.89
54910;BME280;40808;51.240;9.964;2022-08-19T11:42:07;97594.91;;;26.01;44.66
54910;BME280;40808;51.240;9.964;2022-08-19T11:44:51;97597.66;;;26.09;45.99
54910;BME280;40808;51.240;9.964;2022-08-19T11:47:18;97608.13;;;26.21;45.10
54910;BME280;40808;51.240;9.964;2022-08-19T11:49:45;97606.44;;;26.19;44.34
54910;BME280;40808;51.240;9.964;2022-08-19T11:52:11;97601.22;;;26.36;44.85
54910;BME280;40808;51.240;9.964;2022-08-19T11:54:36;97601.72;;;26.49;44.66
54910;BME280;40808;51.240;9.964;2022-08-19T11:57:03;97598.41;;;26.55;43.90
54910;BME280;40808;51.240;9.964;2022-08-19T11:59:28;97598.41;;;26.55;43.68
54910;BME280;40808;51.240;9.964;2022-08-19T12:01:54;97594.06;;;26.54;43.84
54910;BME280;40808;51.240;9.964;2022-08-19T12:04:21;97601.09;;;26.55;43.01
54910;BME280;40808;51.240;9.964;2022-08-19T12:06:46;97600.56;;;26.52;42.62
54910;BME280;40808;51.240;9.964;2022-08-19T12:09:12;97595.75;;;26.55;43.33
54910;BME280;40808;51.240;9.964;2022-08-19T12:11:39;97604.66;;;26.64;42.41
54910;BME280;40808;51.240;9.964;2022-08-19T12:14:06;97599.81;;;26.59;43.22
54910;BME280;40808;51.240;9.964;2022-08-19T12:16:31;97597.81;;;26.43;43.02
54910;BME280;40808;51.240;9.964;2022-08-19T12:18:58;97597.38;;;26.48;43.50
54910;BME280;40808;51.240;9.964;2022-08-19T12:21:29;97590.56;;;26.54;42.91
54910;BME280;40808;51.240;9.964;2022-08-19T12:23:57;97588.31;;;26.67;43.13
54910;BME280;40808;51.240;9.964;2022-08-19T12:26:24;97588.19;;;26.76;42.09
54910;BME280;40808;51.240;9.964;2022-08-19T12:28:50;97577.88;;;26.82;42.25
54910;BME280;40808;51.240;9.964;2022-08-19T12:31:15;97585.59;;;26.85;41.75
54910;BME280;40808;51.240;9.964;2022-08-19T12:33:41;97575.94;;;26.92;42.00
54910;BME280;40808;51.240;9.964;2022-08-19T12:36:09;97589.66;;;26.97;41.78
54910;BME280;40808;51.240;9.964;2022-08-19T12:38:36;97590.22;;;27.00;41.78
54910;BME280;40808;51.240;9.964;2022-08-19T12:41:02;97585.69;;;27.01;41.24
54910;BME280;40808;51.240;9.964;2022-08-19T12:43:30;97584.88;;;27.00;41.83
54910;BME280;40808;51.240;9.964;2022-08-19T12:45:56;97589.09;;;27.03;41.33
54910;BME280;40808;51.240;9.964;2022-08-19T12:48:21;97584.88;;;27.00;41.93
54910;BME280;40808;51.240;9.964;2022-08-19T12:50:46;97580.56;;;27.08;41.23
54910;BME280;40808;51.240;9.964;2022-08-19T12:53:12;97585.09;;;27.07;41.45
54910;BME280;40808;51.240;9.964;2022-08-19T12:55:38;97583.41;;;27.06;41.85
54910;BME280;40808;51.240;9.964;2022-08-19T12:58:03;97588.25;;;27.02;41.26
54910;BME280;40808;51.240;9.964;2022-08-19T13:00:29;97570.34;;;27.03;41.00
54910;BME280;40808;51.240;9.964;2022-08-19T13:02:57;97572.06;;;27.12;41.76
54910;BME280;40808;51.240;9.964;2022-08-19T13:05:25;97570.06;;;27.14;41.39
54910;BME280;40808;51.240;9.964;2022-08-19T13:07:53;97559.69;;;27.11;41.71
54910;BME280;40808;51.240;9.964;2022-08-19T13:10:23;97560.66;;;27.02;41.45